Time;durP1;ratioP1;P1;durP2;ratioP2;P2;SDS_P1;SDS_P2;PMS_P1;PMS_P2;Temp;Humidity;BMP_temperature;BMP_pressure;BME280_temperature;BME280_humidity;BME280_pressure;Samples;Min_cycle;Max_cycle;Signal;HPM_P1;HPM_P2
2023/06/06 00:00:31;;;;;;;3.28;2.00;;;;;;;16.86;70.76;64742.19;5033716;28;20631;-63
2023/06/06 00:02:57;;;;;;;4.15;2.50;;;;;;;16.74;71.17;64724.44;5051933;28;20198;-64
2023/06/06 00:05:25;;;;;;;7.28;2.20;;;;;;;16.67;72.39;64718.72;5051232;28;20645;-60
2023/06/06 00:07:52;;;;;;;2.75;1.88;;;;;;;16.71;70.25;64721.13;5051205;28;20236;-59
2023/06/06 00:10:18;;;;;;;6.38;2.00;;;;;;;16.70;69.59;64722.56;5051093;28;20205;-58
2023/06/06 00:12:45;;;;;;;3.10;1.92;;;;;;;16.66;69.15;64720.19;5051109;28;20220;-60
2023/06/06 00:15:12;;;;;;;4.93;2.17;;;;;;;16.55;69.12;64708.06;5051098;28;20274;-60
2023/06/06 00:17:39;;;;;;;2.63;2.05;;;;;;;16.67;66.37;64721.28;5051408;28;20201;-58
2023/06/06 00:20:08;;;;;;;3.28;1.77;;;;;;;16.64;63.33;64712.88;5051198;28;20213;-58
2023/06/06 00:22:35;;;;;;;3.10;1.83;;;;;;;16.53;63.35;64703.31;5050819;28;20204;-57
2023/06/06 00:25:01;;;;;;;2.03;1.50;;;;;;;16.56;61.29;64706.63;5033179;28;20205;-56
2023/06/06 00:27:26;;;;;;;3.90;1.88;;;;;;;16.44;63.81;64696.47;5051063;28;20184;-56
2023/06/06 00:29:51;;;;;;;4.40;1.80;;;;;;;16.53;61.24;64701.31;5050860;28;20240;-56
2023/06/06 00:32:17;;;;;;;7.15;1.60;;;;;;;16.46;60.55;64696.13;5050894;28;20630;-55
2023/06/06 00:34:42;;;;;;;1.83;1.55;;;;;;;16.50;60.90;64703.09;5051039;28;20300;-56
2023/06/06 00:37:08;;;;;;;2.40;1.63;;;;;;;16.52;59.52;64699.69;5050321;28;20678;-57
2023/06/06 00:39:33;;;;;;;2.03;1.83;;;;;;;16.40;60.41;64689.53;5051259;28;20215;-60
2023/06/06 00:41:58;;;;;;;2.58;1.48;;;;;;;16.39;59.40;64687.88;5050757;28;20193;-59
2023/06/06 00:44:24;;;;;;;2.38;1.52;;;;;;;16.32;60.59;64677.63;5051589;28;20220;-59
2023/06/06 00:46:50;;;;;;;2.65;1.55;;;;;;;16.33;58.94;64681.81;5050732;28;20201;-60
2023/06/06 00:49:17;;;;;;;3.40;1.67;;;;;;;16.29;57.87;64677.41;5032952;28;20223;-59
2023/06/06 00:51:44;;;;;;;2.20;1.70;;;;;;;16.40;58.16;64691.53;5050699;28;20201;-60
2023/06/06 00:54:12;;;;;;;2.03;1.48;;;;;;;16.30;58.11;64677.97;5050589;28;20218;-59
2023/06/06 00:56:39;;;;;;;4.60;1.65;;;;;;;16.20;57.67;64666.97;5050691;28;20213;-56
2023/06/06 00:59:05;;;;;;;5.20;1.33;;;;;;;16.20;57.97;64670.06;5051003;28;20593;-59
2023/06/06 01:01:33;;;;;;;1.25;1.15;;;;;;;16.21;58.40;64668.06;5050731;28;20223;-58
2023/06/06 01:04:07;;;;;;;2.95;1.50;;;;;;;16.04;58.02;64652.44;5050872;28;20236;-57
2023/06/06 01:06:41;;;;;;;2.05;1.52;;;;;;;16.15;55.71;64659.47;5050503;28;20198;-59
2023/06/06 01:09:10;;;;;;;1.85;1.10;;;;;;;16.08;56.79;64656.84;5050675;28;20614;-58
2023/06/06 01:12:03;;;;;;;2.55;1.90;;;;;;;16.06;59.03;64652.09;5050644;28;20194;-59
2023/06/06 01:14:48;;;;;;;3.92;1.60;;;;;;;16.01;60.46;64646.59;5050509;28;20217;-60
2023/06/06 01:17:17;;;;;;;2.22;1.52;;;;;;;15.89;60.12;64633.41;5050497;28;20181;-58
2023/06/06 01:19:48;;;;;;;3.88;1.55;;;;;;;15.88;61.38;64632.28;5050319;28;20213;-58
2023/06/06 01:22:17;;;;;;;2.97;1.60;;;;;;;16.01;61.88;64644.06;5033345;28;20640;-59
2023/06/06 01:24:49;;;;;;;2.50;1.50;;;;;;;15.97;61.22;64642.22;5050240;28;20536;-59
2023/06/06 01:27:15;;;;;;;2.30;1.50;;;;;;;16.03;59.90;64648.81;5032321;28;20667;-59
2023/06/06 01:29:41;;;;;;;3.60;1.45;;;;;;;15.88;59.85;64632.28;5032281;28;20217;-57
2023/06/06 01:32:30;;;;;;;1.58;1.40;;;;;;;15.87;59.76;64631.19;5050220;28;20214;-56
2023/06/06 01:35:20;;;;;;;2.00;1.50;;;;;;;15.70;64.15;64613.03;5040781;28;20240;-57
2023/06/06 01:37:56;;;;;;;2.15;1.33;;;;;;;15.73;63.09;64616.34;5050151;28;20197;-56
2023/06/06 01:40:26;;;;;;;4.28;1.25;;;;;;;15.65;62.32;64609.53;5050280;28;20185;-60
2023/06/06 01:42:52;;;;;;;2.38;1.30;;;;;;;15.75;61.99;64618.00;5032414;28;20679;-59
2023/06/06 01:45:23;;;;;;;1.58;1.42;;;;;;;15.72;60.24;64614.69;5050069;28;20194;-59
2023/06/06 01:47:50;;;;;;;1.88;1.40;;;;;;;15.70;60.52;64609.94;5032130;28;20215;-59
2023/06/06 01:50:16;;;;;;;4.75;1.13;;;;;;;15.65;62.53;64607.56;5052623;28;20193;-60
2023/06/06 01:52:42;;;;;;;2.05;1.27;;;;;;;15.64;62.76;64603.91;5053356;28;20221;-60
2023/06/06 01:55:08;;;;;;;2.13;1.10;;;;;;;15.65;61.87;64607.00;5053608;28;20217;-61
2023/06/06 01:57:34;;;;;;;2.00;1.30;;;;;;;15.67;63.56;64609.19;5053484;28;20748;-59
2023/06/06 02:00:00;;;;;;;2.35;1.50;;;;;;;15.61;61.89;64605.13;5053344;28;20209;-59
2023/06/06 02:02:27;;;;;;;2.00;1.30;;;;;;;15.66;63.19;64608.09;5053555;28;20200;-60
2023/06/06 02:04:53;;;;;;;3.42;1.10;;;;;;;15.75;64.83;64618.56;5053149;28;20258;-59
2023/06/06 02:07:18;;;;;;;4.00;1.40;;;;;;;15.67;63.11;64609.19;5053221;28;20178;-60
2023/06/06 02:09:44;;;;;;;3.08;1.60;;;;;;;15.78;63.35;64621.28;5053623;28;20205;-59
2023/06/06 02:12:10;;;;;;;3.53;1.13;;;;;;;15.78;64.26;64624.38;5053250;28;20729;-60
2023/06/06 02:14:43;;;;;;;1.67;1.13;;;;;;;15.77;63.33;64620.19;5053603;28;20214;-59
2023/06/06 02:17:08;;;;;;;2.53;1.40;;;;;;;15.67;68.24;64609.19;5053334;28;20201;-59
2023/06/06 02:19:34;;;;;;;3.67;1.58;;;;;;;15.72;63.05;64614.69;5053347;28;20212;-57
2023/06/06 02:22:00;;;;;;;2.08;1.35;;;;;;;15.60;65.44;64601.50;5053084;28;20270;-56
2023/06/06 02:24:25;;;;;;;2.95;1.48;;;;;;;15.63;65.37;64605.34;5053080;28;20221;-57
2023/06/06 02:26:53;;;;;;;4.97;1.35;;;;;;;15.61;65.67;64602.59;5053015;28;20746;-57
2023/06/06 02:29:20;;;;;;;1.27;1.17;;;;;;;15.87;65.96;64631.19;5052733;28;20220;-59
2023/06/06 02:31:45;;;;;;;1.98;1.17;;;;;;;15.71;66.92;64616.13;5052735;28;20247;-59
2023/06/06 02:34:11;;;;;;;6.20;1.40;;;;;;;15.70;67.69;64610.50;5053187;28;20212;-59
2023/06/06 02:36:38;;;;;;;3.45;1.20;;;;;;;15.62;69.96;64603.69;5052714;28;20201;-59
2023/06/06 02:39:04;;;;;;;1.52;1.02;;;;;;;15.43;70.04;64582.81;5052680;28;20667;-59
2023/06/06 02:41:29;;;;;;;2.55;1.17;;;;;;;15.36;70.67;64575.63;5052597;28;20288;-59
2023/06/06 02:43:55;;;;;;;1.85;1.17;;;;;;;15.56;70.16;64594.56;5052908;28;20304;-58
2023/06/06 02:46:21;;;;;;;3.40;1.40;;;;;;;15.40;71.87;64580.03;5052884;28;20684;-58
2023/06/06 02:48:48;;;;;;;2.40;1.33;;;;;;;15.36;68.62;64572.53;5034622;28;20691;-58
2023/06/06 02:51:16;;;;;;;1.48;1.23;;;;;;;15.25;69.62;64562.97;5051476;28;20667;-58
2023/06/06 02:53:43;;;;;;;2.50;1.15;;;;;;;15.25;71.06;64565.53;5052519;28;20297;-58
2023/06/06 02:56:08;;;;;;;2.05;1.23;;;;;;;15.18;70.79;64555.28;5052616;28;20278;-58
2023/06/06 02:58:34;;;;;;;1.40;1.00;;;;;;;15.28;71.48;64568.81;5052746;28;20217;-55
2023/06/06 03:01:03;;;;;;;1.95;1.23;;;;;;;15.30;70.92;64569.03;5052036;28;20685;-56
2023/06/06 03:03:29;;;;;;;2.00;1.42;;;;;;;15.35;72.08;64573.97;5052253;28;20213;-57
2023/06/06 03:05:56;;;;;;;2.78;1.23;;;;;;;15.42;71.21;64581.66;5052226;28;20229;-56
2023/06/06 03:08:22;;;;;;;6.10;2.25;;;;;;;15.39;71.51;64580.91;5052267;28;20205;-56
2023/06/06 03:10:49;;;;;;;4.45;2.72;;;;;;;15.37;71.17;64573.66;5052423;28;20197;-56
2023/06/06 03:13:14;;;;;;;6.60;3.97;;;;;;;15.48;70.91;64588.84;5051992;28;20316;-56
2023/06/06 03:15:41;;;;;;;5.65;1.45;;;;;;;15.48;68.80;64588.28;5052286;28;20727;-57
2023/06/06 03:18:09;;;;;;;2.10;1.42;;;;;;;15.54;73.35;64595.44;5052225;28;20676;-57
2023/06/06 03:20:40;;;;;;;4.13;1.05;;;;;;;15.47;71.20;64587.75;5052161;28;20202;-57
2023/06/06 03:23:07;;;;;;;3.70;1.27;;;;;;;15.40;72.00;64576.94;5052480;28;20656;-57
2023/06/06 03:25:33;;;;;;;5.00;1.85;;;;;;;15.30;71.49;64569.03;5052348;28;20221;-57
2023/06/06 03:28:00;;;;;;;3.80;1.10;;;;;;;15.44;71.79;64584.44;5052117;28;20213;-59
2023/06/06 03:30:26;;;;;;;2.10;1.42;;;;;;;15.77;79.35;64620.19;5052083;28;20259;-59
2023/06/06 03:32:51;;;;;;;10.85;8.13;;;;;;;15.59;72.30;64600.41;5051809;28;20230;-59
2023/06/06 03:35:18;;;;;;;28.60;16.02;;;;;;;15.52;72.88;64595.78;5051830;28;20181;-59
2023/06/06 03:37:43;;;;;;;2.75;1.38;;;;;;;15.63;73.24;64604.81;5052033;28;20200;-60
2023/06/06 03:40:10;;;;;;;3.83;2.90;;;;;;;15.49;73.52;64592.50;5051826;28;20213;-59
2023/06/06 03:42:35;;;;;;;12.63;9.10;;;;;;;15.30;74.32;64566.50;5051774;28;20201;-60
2023/06/06 03:45:00;;;;;;;7.18;1.92;;;;;;;15.48;74.83;64588.84;5051823;28;20645;-59
2023/06/06 03:47:26;;;;;;;4.45;1.70;;;;;;;15.34;76.06;64570.88;5051739;28;20676;-58
2023/06/06 03:49:51;;;;;;;4.93;1.70;;;;;;;15.33;76.54;64574.31;5051653;28;20266;-60
2023/06/06 03:52:17;;;;;;;3.78;1.83;;;;;;;15.40;82.12;64579.47;5051507;28;20213;-60
2023/06/06 03:54:42;;;;;;;5.60;1.55;;;;;;;15.31;79.78;64567.56;5051520;28;20227;-60
2023/06/06 03:57:08;;;;;;;2.80;1.20;;;;;;;15.28;73.30;64566.28;5051496;28;20306;-60
2023/06/06 03:59:34;;;;;;;6.03;2.08;;;;;;;15.22;76.43;64559.69;5051398;28;20216;-60
2023/06/06 04:01:59;;;;;;;2.65;1.27;;;;;;;15.21;75.55;64556.03;5051341;28;20205;-60
2023/06/06 04:04:26;;;;;;;5.82;1.77;;;;;;;15.28;75.39;64568.81;5051523;28;20217;-59
2023/06/06 04:06:52;;;;;;;5.60;1.83;;;;;;;15.37;75.20;64576.72;5033456;28;20652;-59
2023/06/06 04:09:17;;;;;;;7.90;1.50;;;;;;;15.38;73.22;64577.28;5051527;28;20233;-60
2023/06/06 04:11:43;;;;;;;5.57;1.23;;;;;;;15.52;70.53;64590.72;5050427;28;20201;-59
2023/06/06 04:14:10;;;;;;;2.38;1.58;;;;;;;15.59;73.09;64603.50;5033335;28;20647;-60
2023/06/06 04:16:36;;;;;;;1.85;1.35;;;;;;;15.63;72.09;64607.91;5051222;28;20201;-56
2023/06/06 04:19:04;;;;;;;3.47;1.58;;;;;;;15.55;72.75;64593.47;5051083;28;20288;-57
2023/06/06 04:21:30;;;;;;;3.63;1.90;;;;;;;15.80;73.10;64626.03;5051221;28;20892;-58
2023/06/06 04:23:56;;;;;;;1.98;1.40;;;;;;;15.72;72.93;64617.22;5051382;28;20217;-56
2023/06/06 04:26:31;;;;;;;1.52;1.30;;;;;;;15.73;74.43;64618.34;5051255;28;20276;-58
2023/06/06 04:28:59;;;;;;;3.10;1.85;;;;;;;15.85;74.70;64629.56;5033450;28;20233;-57
2023/06/06 04:31:26;;;;;;;3.55;1.45;;;;;;;16.23;76.61;64670.25;5050808;28;20196;-57
2023/06/06 04:33:55;;;;;;;2.08;1.55;;;;;;;16.06;76.03;64649.56;5051023;28;20683;-59
2023/06/06 04:36:21;;;;;;;6.55;1.77;;;;;;;16.11;76.81;64657.06;5050821;28;20201;-59
2023/06/06 04:38:49;;;;;;;3.47;1.67;;;;;;;16.16;76.94;64660.56;5051010;28;20217;-58
2023/06/06 04:41:22;;;;;;;3.50;1.60;;;;;;;16.28;76.86;64676.31;5051086;28;20193;-56
2023/06/06 04:43:49;;;;;;;3.95;2.13;;;;;;;16.42;85.91;64691.72;5051199;28;20243;-56
2023/06/06 04:46:29;;;;;;;7.63;3.20;;;;;;;18.37;100.00;64905.00;5051041;28;20205;-55
2023/06/06 04:49:01;;;;;;;7.65;2.75;;;;;;;18.94;100.00;64964.78;5051186;28;20217;-56
2023/06/06 04:51:33;;;;;;;3.03;1.95;;;;;;;18.57;77.90;64929.06;5050978;28;20585;-57
2023/06/06 04:54:06;;;;;;;6.60;2.65;;;;;;;18.25;79.76;64889.75;5050873;28;20255;-56
2023/06/06 04:56:31;;;;;;;4.85;2.40;;;;;;;18.08;86.34;64871.00;5050689;28;20292;-57
2023/06/06 04:59:05;;;;;;;5.22;1.88;;;;;;;18.25;73.03;64889.22;5050610;28;20227;-56
2023/06/06 05:01:46;;;;;;;5.57;1.77;;;;;;;18.13;75.66;64875.97;5050600;28;20236;-58
2023/06/06 05:04:12;;;;;;;4.50;2.33;;;;;;;18.08;73.87;64868.47;5050612;28;20225;-57
2023/06/06 05:06:37;;;;;;;6.13;2.38;;;;;;;17.87;75.82;64850.41;5050479;28;20220;-57
2023/06/06 05:09:04;;;;;;;4.95;2.08;;;;;;;18.05;85.95;64870.25;5050895;28;20210;-57
2023/06/06 05:11:30;;;;;;;2.75;1.85;;;;;;;18.15;76.42;64878.75;5050657;28;20205;-57
2023/06/06 05:13:55;;;;;;;7.30;2.28;;;;;;;18.69;82.16;64937.19;5050754;28;20221;-57
2023/06/06 05:16:22;;;;;;;12.73;5.35;;;;;;;18.96;84.66;64967.56;5050298;28;20197;-58
2023/06/06 05:18:47;;;;;;;10.40;5.70;;;;;;;19.32;81.99;65009.28;5050466;28;20251;-60
2023/06/06 05:21:14;;;;;;;11.50;2.42;;;;;;;19.57;78.07;65033.81;5050549;28;20698;-57
2023/06/06 05:23:40;;;;;;;3.47;1.80;;;;;;;19.50;74.01;65026.06;5050331;28;20316;-57
2023/06/06 05:26:05;;;;;;;4.45;1.65;;;;;;;19.18;67.58;64994.41;5050429;28;20687;-57
2023/06/06 05:28:31;;;;;;;3.55;2.00;;;;;;;18.69;66.30;64937.75;5032591;28;20213;-57
2023/06/06 05:30:56;;;;;;;5.05;1.98;;;;;;;18.48;66.04;64917.16;5030269;28;20277;-57
2023/06/06 05:33:30;;;;;;;6.97;1.80;;;;;;;18.07;68.53;64874.47;5029674;28;20214;-58
2023/06/06 05:35:56;;;;;;;7.60;1.80;;;;;;;17.62;68.09;64822.84;5028290;28;20310;-58
2023/06/06 05:38:21;;;;;;;5.38;1.52;;;;;;;17.56;67.39;64811.69;5029878;28;20288;-56
2023/06/06 05:40:47;;;;;;;3.53;1.58;;;;;;;17.49;68.62;64808.53;5030128;28;20222;-57
2023/06/06 05:43:14;;;;;;;3.85;1.95;;;;;;;17.29;73.02;64786.47;5030115;28;20209;-56
2023/06/06 05:45:39;;;;;;;8.00;4.15;;;;;;;17.13;73.05;64771.41;5030049;28;20221;-57
2023/06/06 05:48:05;;;;;;;9.60;1.65;;;;;;;17.01;75.37;64755.63;5030216;28;20637;-57
2023/06/06 05:50:31;;;;;;;7.93;2.78;;;;;;;17.09;74.38;64764.97;5030209;28;20711;-56
2023/06/06 05:52:56;;;;;;;2.85;2.08;;;;;;;17.04;75.40;64758.94;5029945;28;20214;-57
2023/06/06 05:55:32;;;;;;;6.38;1.80;;;;;;;17.15;77.34;64768.50;5030222;28;20580;-57
2023/06/06 05:57:58;;;;;;;6.88;2.20;;;;;;;17.17;72.99;64773.25;5030272;28;20659;-58
2023/06/06 06:00:25;;;;;;;4.53;2.15;;;;;;;17.13;74.99;64769.38;5030100;28;20206;-57
2023/06/06 06:02:53;;;;;;;8.73;2.50;;;;;;;17.30;73.79;64785.56;5029900;28;20217;-56
2023/06/06 06:05:28;;;;;;;4.70;2.05;;;;;;;17.29;74.09;64786.47;5029969;28;20212;-57
2023/06/06 06:08:01;;;;;;;3.35;1.67;;;;;;;17.28;79.20;64782.81;5029890;28;20304;-57
2023/06/06 06:10:28;;;;;;;5.07;1.77;;;;;;;18.93;75.22;64966.78;5029569;28;20198;-56
2023/06/06 06:12:53;;;;;;;4.72;1.98;;;;;;;19.71;69.56;65052.38;5029524;28;20305;-60
2023/06/06 06:15:19;;;;;;;1.98;1.55;;;;;;;19.87;70.31;65066.94;5030025;28;20288;-58
2023/06/06 06:17:45;;;;;;;5.85;1.70;;;;;;;20.98;66.77;65189.06;5029874;28;20281;-58
2023/06/06 06:20:13;;;;;;;5.05;2.20;;;;;;;21.05;64.31;65196.28;5029663;28;20206;-57
2023/06/06 06:22:38;;;;;;;3.80;1.52;;;;;;;21.35;62.23;65229.44;5029834;28;20296;-56
2023/06/06 06:25:08;;;;;;;3.83;2.03;;;;;;;21.57;62.15;65254.31;5028205;28;20301;-57
2023/06/06 06:27:35;;;;;;;7.07;1.52;;;;;;;21.65;62.08;65265.72;5029671;28;20202;-57
2023/06/06 06:30:01;;;;;;;6.15;1.70;;;;;;;21.33;59.85;65224.66;5029617;28;20206;-56
2023/06/06 06:32:27;;;;;;;3.42;1.77;;;;;;;21.28;61.81;65219.13;5029553;28;20710;-57
2023/06/06 06:34:52;;;;;;;6.13;1.92;;;;;;;21.36;62.05;65231.09;5030113;28;20213;-56
2023/06/06 06:37:18;;;;;;;3.95;1.90;;;;;;;21.36;62.46;65231.09;5032978;28;20677;-57
2023/06/06 06:39:45;;;;;;;15.02;4.47;;;;;;;22.08;62.60;65309.69;5032823;28;20299;-60
2023/06/06 06:42:11;;;;;;;2.88;1.83;;;;;;;21.97;54.52;65297.50;5032762;28;20182;-59
2023/06/06 06:44:36;;;;;;;9.27;3.58;;;;;;;21.81;57.88;65280.34;5033366;28;20831;-58
2023/06/06 06:47:03;;;;;;;6.90;3.75;;;;;;;21.69;59.14;65270.16;5032746;28;20244;-59
2023/06/06 06:49:29;;;;;;;8.90;3.97;;;;;;;21.68;60.02;65266.50;5032647;28;20708;-56
2023/06/06 06:51:56;;;;;;;6.45;3.13;;;;;;;21.37;59.26;65231.66;5032597;28;20202;-57
2023/06/06 06:54:24;;;;;;;3.63;2.20;;;;;;;21.29;59.10;65220.78;5032858;28;20221;-58
2023/06/06 06:56:51;;;;;;;5.35;2.10;;;;;;;21.19;57.33;65214.84;5032764;28;20198;-56
2023/06/06 06:59:17;;;;;;;4.82;2.72;;;;;;;21.20;62.57;65213.41;5032573;28;20221;-58
2023/06/06 07:01:48;;;;;;;4.53;2.08;;;;;;;21.36;56.46;65230.53;5032729;28;20200;-57
2023/06/06 07:04:13;;;;;;;2.20;1.90;;;;;;;21.15;55.63;65207.88;5032528;28;20206;-57
2023/06/06 07:06:39;;;;;;;5.63;2.15;;;;;;;21.01;59.72;65189.81;5014749;28;20209;-58
2023/06/06 07:09:05;;;;;;;2.13;1.60;;;;;;;20.75;53.73;65164.19;5032780;28;20703;-57
2023/06/06 07:11:31;;;;;;;3.63;1.73;;;;;;;20.74;61.50;65159.97;5032683;28;20225;-57
2023/06/06 07:13:56;;;;;;;2.50;2.05;;;;;;;20.73;62.46;65161.97;5032518;28;20722;-57
2023/06/06 07:16:25;;;;;;;6.35;2.00;;;;;;;21.00;64.71;65191.28;5032472;28;20216;-57
2023/06/06 07:18:52;;;;;;;3.53;1.60;;;;;;;21.07;60.53;65199.03;5032233;28;20213;-56
2023/06/06 07:21:22;;;;;;;3.67;2.03;;;;;;;21.10;63.26;65202.34;5032468;28;20304;-58
2023/06/06 07:23:48;;;;;;;4.28;1.60;;;;;;;21.30;58.81;65221.34;5032485;28;20296;-57
2023/06/06 07:26:19;;;;;;;10.20;2.08;;;;;;;21.24;53.66;65214.72;5032229;28;20384;-58
2023/06/06 07:28:45;;;;;;;6.25;1.83;;;;;;;21.11;56.89;65203.44;5032592;28;20202;-57
2023/06/06 07:31:11;;;;;;;2.60;2.00;;;;;;;21.09;55.31;65200.69;5032147;28;20574;-57
2023/06/06 07:33:36;;;;;;;2.30;1.73;;;;;;;20.92;54.69;65182.44;5032325;28;20677;-57
2023/06/06 07:36:03;;;;;;;3.92;1.90;;;;;;;20.84;61.25;65173.59;5032019;28;20255;-58
2023/06/06 07:38:28;;;;;;;5.78;1.90;;;;;;;20.75;57.95;65164.19;5032416;28;20246;-58
2023/06/06 07:40:54;;;;;;;4.65;1.80;;;;;;;20.67;53.54;65154.78;5031999;28;20232;-58
2023/06/06 07:43:19;;;;;;;5.90;2.10;;;;;;;20.69;57.00;65157.56;5030615;28;20612;-59
2023/06/06 07:45:45;;;;;;;2.72;1.90;;;;;;;21.02;62.80;65195.50;5031755;28;20277;-66
2023/06/06 07:48:11;;;;;;;3.42;2.05;;;;;;;20.92;58.77;65182.44;5031161;28;20253;-59
2023/06/06 07:50:36;;;;;;;3.28;1.55;;;;;;;21.24;56.95;65217.28;5031884;28;20660;-59
2023/06/06 07:53:02;;;;;;;4.35;1.70;;;;;;;21.44;60.11;65239.94;5031870;28;20696;-60
2023/06/06 07:55:28;;;;;;;4.68;2.05;;;;;;;21.65;61.23;65262.63;5031660;28;20273;-58
2023/06/06 07:57:56;;;;;;;3.72;1.80;;;;;;;21.75;58.29;65274.22;5031435;28;20352;-58
2023/06/06 08:00:22;;;;;;;7.40;1.98;;;;;;;21.68;58.83;65263.94;5031652;28;20736;-59
2023/06/06 08:02:47;;;;;;;5.90;2.58;;;;;;;21.99;58.91;65297.16;5031251;28;20293;-59
2023/06/06 08:05:13;;;;;;;2.20;1.88;;;;;;;22.03;59.75;65306.69;5031479;28;20205;-60
2023/06/06 08:07:38;;;;;;;2.10;1.80;;;;;;;22.02;57.06;65300.47;5031565;28;20320;-58
2023/06/06 08:10:06;;;;;;;2.60;1.85;;;;;;;21.92;61.40;65289.41;5031569;28;20238;-58
2023/06/06 08:12:31;;;;;;;2.70;2.00;;;;;;;21.65;58.15;65263.16;5031346;28;20757;-59
2023/06/06 08:14:57;;;;;;;4.63;1.92;;;;;;;21.43;57.40;65238.28;5031158;28;20206;-60
2023/06/06 08:17:22;;;;;;;3.38;1.65;;;;;;;21.46;61.43;65244.16;5031118;28;20245;-60
2023/06/06 08:19:48;;;;;;;3.42;2.20;;;;;;;21.98;62.09;65298.63;5031707;28;20718;-58
2023/06/06 08:22:13;;;;;;;2.45;2.25;;;;;;;22.08;59.77;65309.69;5031365;28;20229;-60
2023/06/06 08:24:39;;;;;;;2.55;1.95;;;;;;;22.19;56.42;65319.28;5031175;28;20297;-60
2023/06/06 08:27:05;;;;;;;3.28;1.90;;;;;;;22.15;61.93;65317.41;5031226;28;20381;-61
2023/06/06 08:29:31;;;;;;;3.53;2.05;;;;;;;22.26;58.81;65329.59;5031215;28;20293;-58
2023/06/06 08:31:56;;;;;;;6.03;2.60;;;;;;;22.45;60.72;65351.19;5031064;28;20294;-58
2023/06/06 08:34:23;;;;;;;2.97;2.20;;;;;;;22.66;58.12;65370.78;5030954;28;20301;-58
2023/06/06 08:36:49;;;;;;;5.65;1.80;;;;;;;22.82;57.29;65389.06;5029634;28;20217;-57
2023/06/06 08:39:18;;;;;;;5.57;1.63;;;;;;;22.76;60.50;65382.41;5031371;28;20279;-58
2023/06/06 08:41:53;;;;;;;3.45;2.03;;;;;;;22.89;60.14;65398.81;5031263;28;20277;-57
2023/06/06 08:44:23;;;;;;;2.90;1.95;;;;;;;22.99;54.47;65409.88;5031309;28;20237;-60
2023/06/06 08:46:57;;;;;;;2.95;1.88;;;;;;;22.74;56.15;65382.75;5029746;28;20190;-57
2023/06/06 08:49:27;;;;;;;3.78;2.03;;;;;;;22.79;55.79;65388.28;5030939;28;20221;-57
2023/06/06 08:51:54;;;;;;;4.03;1.90;;;;;;;22.79;59.70;65388.28;5030618;28;20746;-58
2023/06/06 08:54:20;;;;;;;2.30;1.92;;;;;;;22.66;57.81;65371.34;5031199;28;20292;-58
2023/06/06 08:56:46;;;;;;;4.45;2.70;;;;;;;22.87;62.40;65391.44;5030830;28;20290;-57
2023/06/06 08:59:13;;;;;;;5.22;1.80;;;;;;;22.97;58.49;65405.66;5030004;28;20224;-58
2023/06/06 09:01:39;;;;;;;2.10;1.83;;;;;;;22.97;55.19;65408.22;5030062;28;20182;-57
2023/06/06 09:04:06;;;;;;;5.00;2.30;;;;;;;22.78;57.97;65386.63;5031144;28;20210;-57
2023/06/06 09:06:43;;;;;;;4.65;2.35;;;;;;;22.87;61.12;65394.56;5029608;28;20236;-57
2023/06/06 09:09:10;;;;;;;5.13;2.72;;;;;;;22.79;60.00;65387.72;5030262;28;20212;-57
2023/06/06 09:11:36;;;;;;;3.53;2.17;;;;;;;22.91;59.03;65401.00;5030370;28;20205;-58
2023/06/06 09:14:05;;;;;;;6.60;2.20;;;;;;;22.99;55.13;65409.88;5030456;28;20210;-57
2023/06/06 09:16:31;;;;;;;3.45;1.92;;;;;;;23.10;59.69;65422.06;5030598;28;20214;-58
2023/06/06 09:18:58;;;;;;;2.88;2.28;;;;;;;23.37;59.67;65451.44;5030366;28;20214;-57
2023/06/06 09:21:32;;;;;;;2.65;1.73;;;;;;;23.53;57.57;65466.59;5029768;28;20205;-57
2023/06/06 09:23:58;;;;;;;3.63;2.08;;;;;;;23.70;56.13;65488.56;5030211;28;20235;-58
2023/06/06 09:26:25;;;;;;;4.25;2.38;;;;;;;23.82;59.76;65501.31;5030626;28;20669;-57
2023/06/06 09:28:51;;;;;;;2.45;1.80;;;;;;;23.96;59.62;65519.41;5030575;28;20275;-57
2023/06/06 09:31:37;;;;;;;5.57;2.20;;;;;;;24.05;52.79;65527.41;5030554;28;20205;-57
2023/06/06 09:34:03;;;;;;;3.55;2.55;;;;;;;24.15;58.58;65540.50;5030267;28;20729;-60
2023/06/06 09:36:29;;;;;;;6.85;2.70;;;;;;;23.94;53.03;65512.03;5029245;28;20197;-58
2023/06/06 09:39:09;;;;;;;4.03;2.33;;;;;;;23.78;55.74;65496.88;5052881;23;20245;-57
2023/06/06 09:41:40;;;;;;;2.75;2.00;;;;;;;23.89;56.56;65506.50;5070094;28;20654;-56
2023/06/06 09:44:23;;;;;;;2.83;2.53;;;;;;;23.89;57.16;65506.50;5059317;28;20335;-58
2023/06/06 09:46:49;;;;;;;2.92;2.25;;;;;;;23.97;58.47;65515.94;5032300;28;20185;-57
2023/06/06 09:49:15;;;;;;;6.38;2.45;;;;;;;24.01;58.34;65522.38;5050318;28;20687;-57
2023/06/06 09:51:44;;;;;;;7.90;2.58;;;;;;;24.04;55.20;65525.72;5049911;28;20201;-56
2023/06/06 09:54:11;;;;;;;2.88;2.10;;;;;;;23.91;57.53;65508.72;5049874;28;20219;-57
2023/06/06 09:56:40;;;;;;;3.47;1.92;;;;;;;24.16;55.53;65539.59;5050006;28;20695;-57
2023/06/06 09:59:07;;;;;;;2.33;2.13;;;;;;;24.40;57.65;65565.63;5050037;28;20294;-56
2023/06/06 10:01:37;;;;;;;11.45;2.50;;;;;;;24.64;55.29;65586.56;5049920;28;20202;-56
2023/06/06 10:04:04;;;;;;;3.40;2.42;;;;;;;24.62;54.16;65589.50;5050113;28;20309;-57
2023/06/06 10:06:38;;;;;;;3.55;3.00;;;;;;;24.68;53.61;65593.56;5049846;28;20216;-56
2023/06/06 10:09:06;;;;;;;2.25;2.05;;;;;;;25.01;55.74;65629.66;5049884;28;20205;-57
2023/06/06 10:11:33;;;;;;;3.17;2.10;;;;;;;25.06;53.60;65635.75;5052264;28;20209;-56
2023/06/06 10:13:59;;;;;;;4.57;2.88;;;;;;;25.24;56.12;65655.16;5052535;28;20218;-58
2023/06/06 10:16:27;;;;;;;4.40;2.35;;;;;;;25.47;52.34;65680.72;5053125;28;20201;-57
2023/06/06 10:18:53;;;;;;;3.67;2.50;;;;;;;25.64;51.97;65699.56;5053237;28;20221;-57
2023/06/06 10:21:20;;;;;;;5.53;2.28;;;;;;;25.65;50.38;65701.25;5035205;28;20656;-57
2023/06/06 10:23:45;;;;;;;5.70;2.45;;;;;;;25.63;51.40;65698.47;5053286;28;20210;-58
2023/06/06 10:26:52;;;;;;;6.50;2.78;;;;;;;25.64;51.67;65702.16;5053378;28;20205;-57
2023/06/06 10:29:25;;;;;;;3.42;2.10;;;;;;;25.60;50.95;65698.28;5036147;28;20233;-57
2023/06/06 10:31:57;;;;;;;5.32;2.40;;;;;;;25.38;50.70;65670.69;5052954;28;20243;-57
2023/06/06 10:34:27;;;;;;;4.47;2.47;;;;;;;25.79;54.51;65716.81;5053312;28;20225;-58
2023/06/06 10:36:54;;;;;;;4.18;2.42;;;;;;;25.97;49.59;65738.81;5052025;28;20208;-57
2023/06/06 10:39:29;;;;;;;6.10;2.45;;;;;;;26.25;50.23;65767.34;5052093;28;20723;-58
2023/06/06 10:42:05;;;;;;;5.38;2.10;;;;;;;26.31;48.23;65770.88;5051655;28;20674;-57
2023/06/06 10:44:38;;;;;;;5.18;2.95;;;;;;;26.08;48.59;65747.91;5052174;28;20231;-57
2023/06/06 10:47:30;;;;;;;6.03;2.50;;;;;;;26.33;47.75;65776.22;5052780;28;20201;-59
2023/06/06 10:50:07;;;;;;;6.75;2.70;;;;;;;26.21;46.91;65765.50;5052692;28;20205;-57
2023/06/06 10:52:57;;;;;;;5.45;2.22;;;;;;;26.49;46.68;65794.00;5052388;28;20283;-58
2023/06/06 10:55:23;;;;;;;3.97;2.60;;;;;;;26.52;48.83;65797.31;5052793;28;20205;-59
2023/06/06 10:57:53;;;;;;;3.45;2.53;;;;;;;26.48;50.84;65792.34;5034850;28;20622;-59
2023/06/06 11:00:23;;;;;;;6.97;2.35;;;;;;;26.62;46.57;65808.44;5052733;28;20212;-59
2023/06/06 11:02:49;;;;;;;4.72;2.10;;;;;;;26.41;47.04;65787.69;5034759;28;20212;-61
2023/06/06 11:05:15;;;;;;;7.28;2.97;;;;;;;26.61;47.06;65809.38;5052507;28;20206;-57
2023/06/06 11:07:40;;;;;;;3.00;2.70;;;;;;;26.77;48.69;65824.00;5051952;28;20197;-60
2023/06/06 11:10:06;;;;;;;5.78;2.25;;;;;;;26.62;46.45;65805.31;5050913;28;20288;-57
2023/06/06 11:12:32;;;;;;;2.47;2.28;;;;;;;26.57;45.00;65805.47;5051801;28;20627;-59
2023/06/06 11:15:05;;;;;;;4.18;2.47;;;;;;;26.64;48.68;65808.06;5052053;28;20210;-59
2023/06/06 11:17:47;;;;;;;4.03;2.42;;;;;;;26.79;44.52;65826.22;5052547;28;20174;-58
2023/06/06 11:20:27;;;;;;;3.95;2.63;;;;;;;26.85;46.21;65832.91;5051966;28;20244;-57
2023/06/06 11:23:04;;;;;;;10.13;2.72;;;;;;;27.01;47.29;65851.25;5052147;28;20694;-57
2023/06/06 11:25:31;;;;;;;5.07;2.40;;;;;;;27.13;45.91;65867.16;5050937;28;20250;-57
2023/06/06 11:27:58;;;;;;;8.93;3.28;;;;;;;27.22;44.70;65874.03;5051970;28;20229;-57
2023/06/06 11:30:29;;;;;;;7.95;2.22;;;;;;;27.13;42.88;65866.63;5051997;28;20209;-57
2023/06/06 11:32:55;;;;;;;2.20;2.00;;;;;;;27.13;44.88;65864.03;5051999;28;20213;-58
2023/06/06 11:35:21;;;;;;;2.53;2.33;;;;;;;27.03;43.17;65852.91;5051875;28;20219;-57
2023/06/06 11:37:46;;;;;;;6.28;2.20;;;;;;;26.97;45.99;65846.25;5051921;28;20193;-57